createdAt,value
2022-09-16T00:03:55.614Z,13.07
2022-09-16T00:11:34.413Z,12.99
2022-09-16T00:19:08.108Z,12.94
2022-09-16T00:26:43.491Z,12.89
2022-09-16T00:34:17.235Z,12.81
2022-09-16T00:41:52.297Z,12.74
2022-09-16T00:49:27.677Z,12.69
2022-09-16T00:57:04.841Z,12.61
2022-09-16T01:04:44.664Z,12.57
2022-09-16T01:12:19.804Z,12.56
2022-09-16T01:20:11.516Z,12.48
2022-09-16T01:28:13.126Z,12.48
2022-09-16T01:36:04.899Z,12.40
2022-09-16T01:43:48.466Z,12.36
2022-09-16T01:51:29.064Z,12.27
2022-09-16T01:59:09.467Z,12.25
2022-09-16T02:06:47.447Z,12.23
2022-09-16T02:14:25.210Z,12.15
2022-09-16T02:22:04.973Z,12.09
2022-09-16T02:29:42.897Z,12.07
2022-09-16T02:37:23.253Z,12.04
2022-09-16T02:44:58.250Z,12.03
2022-09-16T02:52:37.348Z,11.91
2022-09-16T03:00:11.960Z,11.89
2022-09-16T03:07:47.351Z,11.86
2022-09-16T03:15:41.979Z,11.82
2022-09-16T03:23:24.412Z,11.77
2022-09-16T03:31:04.828Z,11.76
2022-09-16T03:38:42.205Z,11.78
2022-09-16T03:46:15.857Z,11.78
2022-09-16T03:53:50.908Z,11.77
2022-09-16T04:01:24.457Z,11.73
2022-09-16T04:09:01.130Z,11.69
2022-09-16T04:16:35.240Z,11.64
2022-09-16T04:24:13.124Z,11.57
2022-09-16T04:31:47.330Z,11.54
2022-09-16T04:39:22.706Z,11.54
2022-09-16T04:46:56.415Z,11.52
2022-09-16T04:54:31.478Z,11.51
2022-09-16T05:02:06.445Z,11.54
2022-09-16T05:09:41.538Z,11.51
2022-09-16T05:17:33.176Z,11.48
2022-09-16T05:25:10.837Z,11.41
2022-09-16T05:32:44.502Z,11.46
2022-09-16T05:40:22.922Z,11.44
2022-09-16T05:47:56.706Z,11.48
2022-09-16T05:55:31.948Z,11.54
2022-09-16T06:03:05.684Z,11.62
2022-09-16T06:10:41.554Z,11.69
2022-09-16T06:18:16.322Z,11.77
2022-09-16T06:26:00.472Z,11.95
2022-09-16T06:33:34.693Z,12.00
2022-09-16T06:41:11.324Z,12.08
2022-09-16T06:48:46.572Z,12.19
2022-09-16T06:56:22.608Z,12.35
2022-09-16T07:03:58.301Z,12.46
2022-09-16T07:11:34.038Z,12.52
2022-09-16T07:19:08.530Z,12.65
2022-09-16T07:26:44.747Z,12.85
2022-09-16T07:34:18.668Z,13.03
2022-09-16T07:41:53.688Z,13.03
2022-09-16T07:49:27.626Z,13.15
2022-09-16T07:57:02.695Z,13.44
2022-09-16T08:04:36.348Z,13.61
2022-09-16T08:12:12.779Z,13.58
2022-09-16T08:19:46.471Z,13.74
2022-09-16T08:27:21.495Z,13.89
2022-09-16T08:34:55.043Z,14.00
2022-09-16T08:42:57.055Z,14.33
2022-09-16T08:50:36.911Z,14.66
2022-09-16T08:58:17.071Z,14.86
2022-09-16T09:05:53.721Z,14.98
2022-09-16T09:14:08.460Z,15.22
2022-09-16T09:21:53.721Z,15.07
2022-09-16T09:29:45.868Z,15.27
2022-09-16T09:37:37.945Z,15.37
2022-09-16T09:45:20.470Z,15.44
2022-09-16T09:53:01.104Z,15.51
2022-09-16T10:00:36.332Z,15.38
2022-09-16T10:08:17.180Z,15.48
2022-09-16T10:15:55.614Z,15.59
2022-09-16T10:23:30.543Z,15.54
2022-09-16T10:31:08.898Z,15.44
2022-09-16T10:38:45.557Z,15.67
2022-09-16T10:46:21.485Z,15.54
2022-09-16T10:53:57.531Z,15.44
2022-09-16T11:01:46.271Z,15.34
2022-09-16T11:09:30.799Z,15.59
2022-09-16T11:17:19.568Z,15.79
2022-09-16T11:25:09.784Z,16.04
2022-09-16T11:33:07.004Z,15.86
2022-09-16T11:40:53.397Z,16.12
2022-09-16T11:48:42.738Z,16.43
2022-09-16T11:56:20.690Z,16.41
2022-09-16T12:04:01.705Z,16.31
2022-09-16T12:11:38.398Z,16.32
2022-09-16T12:22:47.419Z,16.28
2022-09-16T12:30:25.284Z,16.21
2022-09-16T12:38:00.991Z,16.35
2022-09-16T12:46:15.670Z,16.29
2022-09-16T12:54:11.256Z,16.09
2022-09-16T13:01:49.095Z,16.25
2022-09-16T13:09:26.627Z,16.48
2022-09-16T13:17:03.382Z,16.63
2022-09-16T13:24:42.019Z,16.84
2022-09-16T13:40:25.198Z,17.11
2022-09-16T13:47:59.187Z,17.05
2022-09-16T13:55:34.969Z,16.96
2022-09-16T14:03:31.377Z,17.30
2022-09-16T14:11:12.414Z,17.48
2022-09-16T14:18:54.458Z,17.42
2022-09-16T14:26:29.544Z,17.48
2022-09-16T14:34:04.874Z,17.62
2022-09-16T14:41:44.479Z,17.75
2022-09-16T14:49:19.828Z,17.97
2022-09-16T14:57:01.294Z,18.15
2022-09-16T15:04:40.270Z,18.10
2022-09-16T15:12:29.784Z,17.91
2022-09-16T15:20:03.697Z,17.76
2022-09-16T15:27:38.879Z,17.70
2022-09-16T15:35:23.234Z,17.73
2022-09-16T15:43:26.448Z,18.05
2022-09-16T15:51:05.141Z,18.02
2022-09-16T15:58:45.439Z,17.61
2022-09-16T16:06:19.366Z,17.27
2022-09-16T16:13:56.548Z,17.07
2022-09-16T16:21:33.458Z,16.89
2022-09-16T16:29:09.079Z,16.81
2022-09-16T16:36:42.925Z,16.75
2022-09-16T16:44:18.025Z,16.59
2022-09-16T16:51:52.123Z,16.38
2022-09-16T16:59:28.175Z,16.14
2022-09-16T17:07:24.677Z,15.97
2022-09-16T17:14:57.178Z,15.79
2022-09-16T17:22:30.801Z,15.57
2022-09-16T17:30:08.144Z,15.44
2022-09-16T17:37:41.877Z,15.22
2022-09-16T17:45:17.171Z,15.13
2022-09-16T17:52:51.048Z,14.99
2022-09-16T18:00:26.190Z,14.91
2022-09-16T18:07:59.922Z,14.70
2022-09-16T18:15:35.064Z,14.61
2022-09-16T18:23:08.788Z,14.48
2022-09-16T18:30:44.663Z,14.47
2022-09-16T18:38:18.511Z,14.34
2022-09-16T18:45:54.053Z,14.27
2022-09-16T18:53:27.936Z,14.25
2022-09-16T19:01:09.693Z,14.25
2022-09-16T19:08:44.193Z,14.25
2022-09-16T19:16:20.208Z,14.18
2022-09-16T19:23:56.801Z,14.01
2022-09-16T19:31:32.943Z,13.77
2022-09-16T19:39:07.812Z,13.60
2022-09-16T19:46:44.872Z,13.54
2022-09-16T19:54:19.351Z,13.38
2022-09-16T20:01:54.455Z,13.09
2022-09-16T20:09:28.015Z,12.86
2022-09-16T20:17:03.416Z,12.74
2022-09-16T20:24:37.429Z,12.53
2022-09-16T20:32:12.708Z,12.47
2022-09-16T20:39:46.398Z,12.43
2022-09-16T20:47:21.784Z,12.35
2022-09-16T20:54:55.524Z,12.17
2022-09-16T21:02:30.702Z,12.04
2022-09-16T21:10:05.125Z,11.87
2022-09-16T21:17:40.179Z,11.74
2022-09-16T21:25:13.656Z,11.70
2022-09-16T21:32:48.855Z,11.70
2022-09-16T21:40:24.121Z,11.66
2022-09-16T21:47:59.186Z,11.59
2022-09-16T21:55:32.728Z,11.58
2022-09-16T22:03:08.041Z,11.53
2022-09-16T22:10:41.727Z,11.55
2022-09-16T22:18:17.138Z,11.64
2022-09-16T22:25:50.854Z,11.64
2022-09-16T22:33:26.153Z,11.63
2022-09-16T22:41:01.333Z,11.62
2022-09-16T22:48:37.154Z,11.58
2022-09-16T22:56:13.376Z,11.58
2022-09-16T23:03:52.170Z,11.62
2022-09-16T23:11:28.572Z,11.67
2022-09-16T23:19:06.226Z,11.60
2022-09-16T23:26:40.246Z,11.60
2022-09-16T23:34:19.055Z,11.62
2022-09-16T23:41:52.791Z,11.65
2022-09-16T23:49:27.857Z,11.72
2022-09-16T23:57:01.427Z,11.75
